sensor_id;sensor_type;location;lat;lon;timestamp;P1;durP1;ratioP1;P2;durP2;ratioP2
70467;SDS011;57934;51.532;7.684;2023-07-13T00:00:35;5.07;;;1.92;;
70467;SDS011;57934;51.532;7.684;2023-07-13T00:03:02;6.07;;;1.80;;
70467;SDS011;57934;51.532;7.684;2023-07-13T00:05:28;8.43;;;2.47;;
70467;SDS011;57934;51.532;7.684;2023-07-13T00:07:54;6.05;;;1.65;;
70467;SDS011;57934;51.532;7.684;2023-07-13T00:10:21;4.43;;;1.63;;
70467;SDS011;57934;51.532;7.684;2023-07-13T00:12:47;8.25;;;2.13;;
70467;SDS011;57934;51.532;7.684;2023-07-13T00:15:18;4.18;;;1.70;;
70467;SDS011;57934;51.532;7.684;2023-07-13T00:17:52;7.43;;;1.85;;
70467;SDS011;57934;51.532;7.684;2023-07-13T00:20:19;3.92;;;1.60;;
70467;SDS011;57934;51.532;7.684;2023-07-13T00:22:51;5.20;;;1.63;;
70467;SDS011;57934;51.532;7.684;2023-07-13T00:25:22;8.07;;;2.10;;
70467;SDS011;57934;51.532;7.684;2023-07-13T00:27:53;6.30;;;1.65;;
70467;SDS011;57934;51.532;7.684;2023-07-13T00:30:19;4.53;;;1.60;;
70467;SDS011;57934;51.532;7.684;2023-07-13T00:32:46;7.32;;;1.90;;
70467;SDS011;57934;51.532;7.684;2023-07-13T00:35:13;7.00;;;1.73;;
70467;SDS011;57934;51.532;7.684;2023-07-13T00:37:40;6.45;;;1.70;;
70467;SDS011;57934;51.532;7.684;2023-07-13T00:40:07;5.63;;;1.75;;
70467;SDS011;57934;51.532;7.684;2023-07-13T00:42:33;7.35;;;1.60;;
70467;SDS011;57934;51.532;7.684;2023-07-13T00:45:01;5.25;;;1.92;;
70467;SDS011;57934;51.532;7.684;2023-07-13T00:47:36;5.75;;;1.92;;
70467;SDS011;57934;51.532;7.684;2023-07-13T00:50:02;4.07;;;1.60;;
70467;SDS011;57934;51.532;7.684;2023-07-13T00:52:31;6.65;;;1.92;;
70467;SDS011;57934;51.532;7.684;2023-07-13T00:55:00;6.38;;;1.52;;
70467;SDS011;57934;51.532;7.684;2023-07-13T00:57:27;6.35;;;1.40;;
70467;SDS011;57934;51.532;7.684;2023-07-13T00:59:54;6.75;;;1.67;;
70467;SDS011;57934;51.532;7.684;2023-07-13T01:02:24;6.22;;;1.48;;
70467;SDS011;57934;51.532;7.684;2023-07-13T01:04:50;6.05;;;1.67;;
70467;SDS011;57934;51.532;7.684;2023-07-13T01:07:16;4.13;;;1.42;;
70467;SDS011;57934;51.532;7.684;2023-07-13T01:09:44;6.97;;;1.80;;
70467;SDS011;57934;51.532;7.684;2023-07-13T01:12:11;9.93;;;1.77;;
70467;SDS011;57934;51.532;7.684;2023-07-13T01:14:37;2.65;;;1.48;;
70467;SDS011;57934;51.532;7.684;2023-07-13T01:17:03;5.35;;;1.30;;
70467;SDS011;57934;51.532;7.684;2023-07-13T01:22:05;4.95;;;1.48;;
70467;SDS011;57934;51.532;7.684;2023-07-13T01:24:35;7.13;;;1.63;;
70467;SDS011;57934;51.532;7.684;2023-07-13T01:27:02;4.95;;;1.60;;
70467;SDS011;57934;51.532;7.684;2023-07-13T01:29:29;4.63;;;1.70;;
70467;SDS011;57934;51.532;7.684;2023-07-13T01:31:56;5.43;;;1.40;;
70467;SDS011;57934;51.532;7.684;2023-07-13T01:34:25;6.63;;;1.80;;
70467;SDS011;57934;51.532;7.684;2023-07-13T01:36:53;5.63;;;1.75;;
70467;SDS011;57934;51.532;7.684;2023-07-13T01:39:22;5.28;;;1.67;;
70467;SDS011;57934;51.532;7.684;2023-07-13T01:41:48;4.80;;;1.60;;
70467;SDS011;57934;51.532;7.684;2023-07-13T01:44:14;6.18;;;1.48;;
70467;SDS011;57934;51.532;7.684;2023-07-13T01:46:40;10.23;;;2.13;;
70467;SDS011;57934;51.532;7.684;2023-07-13T01:49:06;6.50;;;1.65;;
70467;SDS011;57934;51.532;7.684;2023-07-13T01:51:32;5.15;;;1.42;;
70467;SDS011;57934;51.532;7.684;2023-07-13T01:53:58;5.43;;;1.55;;
70467;SDS011;57934;51.532;7.684;2023-07-13T01:56:24;9.15;;;1.95;;
70467;SDS011;57934;51.532;7.684;2023-07-13T01:58:50;6.35;;;1.48;;
70467;SDS011;57934;51.532;7.684;2023-07-13T02:01:17;5.43;;;1.65;;
70467;SDS011;57934;51.532;7.684;2023-07-13T02:03:43;5.88;;;1.70;;
70467;SDS011;57934;51.532;7.684;2023-07-13T02:06:09;2.47;;;1.27;;
70467;SDS011;57934;51.532;7.684;2023-07-13T02:08:35;6.40;;;1.60;;
70467;SDS011;57934;51.532;7.684;2023-07-13T02:11:02;6.63;;;1.77;;
70467;SDS011;57934;51.532;7.684;2023-07-13T02:13:29;6.00;;;1.65;;
70467;SDS011;57934;51.532;7.684;2023-07-13T02:15:55;6.30;;;1.73;;
70467;SDS011;57934;51.532;7.684;2023-07-13T02:18:21;3.72;;;1.40;;
70467;SDS011;57934;51.532;7.684;2023-07-13T02:20:47;8.57;;;2.10;;
70467;SDS011;57934;51.532;7.684;2023-07-13T02:23:13;8.55;;;1.85;;
70467;SDS011;57934;51.532;7.684;2023-07-13T02:25:38;8.93;;;1.80;;
70467;SDS011;57934;51.532;7.684;2023-07-13T02:28:04;3.78;;;1.40;;
70467;SDS011;57934;51.532;7.684;2023-07-13T02:30:30;7.07;;;1.40;;
70467;SDS011;57934;51.532;7.684;2023-07-13T02:32:57;8.85;;;1.75;;
70467;SDS011;57934;51.532;7.684;2023-07-13T02:35:23;6.45;;;1.55;;
70467;SDS011;57934;51.532;7.684;2023-07-13T02:37:49;9.90;;;1.60;;
70467;SDS011;57934;51.532;7.684;2023-07-13T02:40:16;10.43;;;1.80;;
70467;SDS011;57934;51.532;7.684;2023-07-13T02:42:42;4.35;;;1.50;;
70467;SDS011;57934;51.532;7.684;2023-07-13T02:45:08;4.65;;;1.42;;
70467;SDS011;57934;51.532;7.684;2023-07-13T02:47:35;5.78;;;1.83;;
70467;SDS011;57934;51.532;7.684;2023-07-13T02:50:02;6.20;;;1.70;;
70467;SDS011;57934;51.532;7.684;2023-07-13T02:52:30;5.35;;;1.40;;
70467;SDS011;57934;51.532;7.684;2023-07-13T02:54:57;7.07;;;1.70;;
70467;SDS011;57934;51.532;7.684;2023-07-13T02:57:22;4.05;;;1.60;;
70467;SDS011;57934;51.532;7.684;2023-07-13T02:59:49;5.55;;;1.40;;
70467;SDS011;57934;51.532;7.684;2023-07-13T03:02:15;8.30;;;1.55;;
70467;SDS011;57934;51.532;7.684;2023-07-13T03:04:41;11.05;;;2.13;;
70467;SDS011;57934;51.532;7.684;2023-07-13T03:07:07;4.80;;;1.70;;
70467;SDS011;57934;51.532;7.684;2023-07-13T03:09:36;7.55;;;1.58;;
70467;SDS011;57934;51.532;7.684;2023-07-13T03:12:05;8.32;;;1.80;;
70467;SDS011;57934;51.532;7.684;2023-07-13T03:14:32;7.22;;;1.63;;
70467;SDS011;57934;51.532;7.684;2023-07-13T03:17:00;6.13;;;1.60;;
70467;SDS011;57934;51.532;7.684;2023-07-13T03:19:30;5.07;;;1.50;;
70467;SDS011;57934;51.532;7.684;2023-07-13T03:21:56;9.30;;;1.83;;
70467;SDS011;57934;51.532;7.684;2023-07-13T03:24:22;6.32;;;1.85;;
70467;SDS011;57934;51.532;7.684;2023-07-13T03:26:50;4.32;;;1.60;;
70467;SDS011;57934;51.532;7.684;2023-07-13T03:29:17;8.60;;;1.75;;
70467;SDS011;57934;51.532;7.684;2023-07-13T03:31:43;4.45;;;1.70;;
70467;SDS011;57934;51.532;7.684;2023-07-13T03:34:09;2.42;;;1.58;;
70467;SDS011;57934;51.532;7.684;2023-07-13T03:36:36;6.32;;;1.80;;
70467;SDS011;57934;51.532;7.684;2023-07-13T03:39:05;5.57;;;1.70;;
70467;SDS011;57934;51.532;7.684;2023-07-13T03:41:46;8.07;;;1.88;;
70467;SDS011;57934;51.532;7.684;2023-07-13T03:44:13;5.70;;;1.92;;
70467;SDS011;57934;51.532;7.684;2023-07-13T03:46:41;6.18;;;1.92;;
70467;SDS011;57934;51.532;7.684;2023-07-13T03:49:07;11.40;;;1.90;;
70467;SDS011;57934;51.532;7.684;2023-07-13T03:51:34;5.53;;;2.00;;
70467;SDS011;57934;51.532;7.684;2023-07-13T03:54:00;3.35;;;1.40;;
70467;SDS011;57934;51.532;7.684;2023-07-13T03:56:27;7.38;;;1.83;;
70467;SDS011;57934;51.532;7.684;2023-07-13T03:58:54;4.43;;;1.52;;
70467;SDS011;57934;51.532;7.684;2023-07-13T04:01:22;3.55;;;1.48;;
70467;SDS011;57934;51.532;7.684;2023-07-13T04:03:50;4.63;;;1.67;;
70467;SDS011;57934;51.532;7.684;2023-07-13T04:06:21;5.60;;;1.48;;
70467;SDS011;57934;51.532;7.684;2023-07-13T04:08:51;5.90;;;1.35;;
70467;SDS011;57934;51.532;7.684;2023-07-13T04:11:19;5.82;;;1.67;;
70467;SDS011;57934;51.532;7.684;2023-07-13T04:13:46;4.15;;;1.75;;
70467;SDS011;57934;51.532;7.684;2023-07-13T04:16:13;3.38;;;1.63;;
70467;SDS011;57934;51.532;7.684;2023-07-13T04:18:40;3.88;;;1.35;;
70467;SDS011;57934;51.532;7.684;2023-07-13T04:21:07;5.05;;;1.60;;
70467;SDS011;57934;51.532;7.684;2023-07-13T04:23:35;3.85;;;2.15;;
70467;SDS011;57934;51.532;7.684;2023-07-13T04:26:02;5.68;;;1.95;;
70467;SDS011;57934;51.532;7.684;2023-07-13T04:28:28;6.63;;;1.58;;
70467;SDS011;57934;51.532;7.684;2023-07-13T04:30:54;6.55;;;1.92;;
70467;SDS011;57934;51.532;7.684;2023-07-13T04:33:21;6.80;;;1.73;;
70467;SDS011;57934;51.532;7.684;2023-07-13T04:35:50;5.15;;;2.03;;
70467;SDS011;57934;51.532;7.684;2023-07-13T04:38:22;6.90;;;1.70;;
70467;SDS011;57934;51.532;7.684;2023-07-13T04:40:50;5.00;;;1.88;;
70467;SDS011;57934;51.532;7.684;2023-07-13T04:43:17;3.67;;;1.63;;
70467;SDS011;57934;51.532;7.684;2023-07-13T04:45:43;6.50;;;1.50;;
70467;SDS011;57934;51.532;7.684;2023-07-13T04:48:09;6.75;;;2.13;;
70467;SDS011;57934;51.532;7.684;2023-07-13T04:50:36;8.60;;;1.65;;
70467;SDS011;57934;51.532;7.684;2023-07-13T04:53:02;9.38;;;2.00;;
70467;SDS011;57934;51.532;7.684;2023-07-13T04:55:29;12.20;;;1.60;;
70467;SDS011;57934;51.532;7.684;2023-07-13T04:57:56;3.50;;;1.42;;
70467;SDS011;57934;51.532;7.684;2023-07-13T05:00:24;9.80;;;1.90;;
70467;SDS011;57934;51.532;7.684;2023-07-13T05:02:51;3.28;;;1.75;;
70467;SDS011;57934;51.532;7.684;2023-07-13T05:05:20;10.48;;;1.88;;
70467;SDS011;57934;51.532;7.684;2023-07-13T05:07:46;6.43;;;1.77;;
70467;SDS011;57934;51.532;7.684;2023-07-13T05:10:12;7.07;;;1.80;;
70467;SDS011;57934;51.532;7.684;2023-07-13T05:12:38;6.00;;;1.75;;
70467;SDS011;57934;51.532;7.684;2023-07-13T05:15:04;9.10;;;1.75;;
70467;SDS011;57934;51.532;7.684;2023-07-13T05:17:30;7.80;;;1.83;;
70467;SDS011;57934;51.532;7.684;2023-07-13T05:19:56;6.57;;;1.90;;
70467;SDS011;57934;51.532;7.684;2023-07-13T05:22:22;5.95;;;1.80;;
70467;SDS011;57934;51.532;7.684;2023-07-13T05:24:48;4.55;;;1.75;;
70467;SDS011;57934;51.532;7.684;2023-07-13T05:27:14;4.28;;;1.95;;
70467;SDS011;57934;51.532;7.684;2023-07-13T05:29:40;8.48;;;1.95;;
70467;SDS011;57934;51.532;7.684;2023-07-13T05:32:07;5.95;;;1.70;;
70467;SDS011;57934;51.532;7.684;2023-07-13T05:34:33;8.50;;;2.00;;
70467;SDS011;57934;51.532;7.684;2023-07-13T05:36:58;8.10;;;2.03;;
70467;SDS011;57934;51.532;7.684;2023-07-13T05:39:24;10.02;;;2.00;;
70467;SDS011;57934;51.532;7.684;2023-07-13T05:41:51;7.03;;;1.98;;
70467;SDS011;57934;51.532;7.684;2023-07-13T05:44:17;6.85;;;2.13;;
70467;SDS011;57934;51.532;7.684;2023-07-13T05:46:45;7.07;;;1.65;;
70467;SDS011;57934;51.532;7.684;2023-07-13T05:49:11;7.43;;;1.70;;
70467;SDS011;57934;51.532;7.684;2023-07-13T05:51:37;10.13;;;1.85;;
70467;SDS011;57934;51.532;7.684;2023-07-13T05:54:03;7.07;;;1.92;;
70467;SDS011;57934;51.532;7.684;2023-07-13T05:56:29;6.10;;;2.00;;
70467;SDS011;57934;51.532;7.684;2023-07-13T05:58:56;8.18;;;2.00;;
70467;SDS011;57934;51.532;7.684;2023-07-13T06:01:22;11.70;;;3.38;;
70467;SDS011;57934;51.532;7.684;2023-07-13T06:03:49;12.07;;;2.45;;
70467;SDS011;57934;51.532;7.684;2023-07-13T06:06:15;11.20;;;2.80;;
70467;SDS011;57934;51.532;7.684;2023-07-13T06:08:41;9.65;;;2.80;;
70467;SDS011;57934;51.532;7.684;2023-07-13T06:11:09;7.65;;;2.17;;
70467;SDS011;57934;51.532;7.684;2023-07-13T06:13:39;7.43;;;2.05;;
70467;SDS011;57934;51.532;7.684;2023-07-13T06:16:05;6.40;;;2.65;;
70467;SDS011;57934;51.532;7.684;2023-07-13T06:18:33;8.27;;;2.30;;
70467;SDS011;57934;51.532;7.684;2023-07-13T06:21:00;7.68;;;2.45;;
70467;SDS011;57934;51.532;7.684;2023-07-13T06:23:26;12.77;;;3.22;;
70467;SDS011;57934;51.532;7.684;2023-07-13T06:25:52;6.75;;;2.10;;
70467;SDS011;57934;51.532;7.684;2023-07-13T06:28:18;9.52;;;3.00;;
70467;SDS011;57934;51.532;7.684;2023-07-13T06:30:45;6.65;;;2.22;;
70467;SDS011;57934;51.532;7.684;2023-07-13T06:33:11;7.97;;;2.72;;
70467;SDS011;57934;51.532;7.684;2023-07-13T06:35:36;9.68;;;2.47;;
70467;SDS011;57934;51.532;7.684;2023-07-13T06:38:02;10.85;;;2.50;;
70467;SDS011;57934;51.532;7.684;2023-07-13T06:40:28;10.07;;;2.80;;
70467;SDS011;57934;51.532;7.684;2023-07-13T06:42:56;11.23;;;3.08;;
70467;SDS011;57934;51.532;7.684;2023-07-13T06:45:22;9.98;;;2.95;;
70467;SDS011;57934;51.532;7.684;2023-07-13T06:47:48;5.72;;;2.67;;
70467;SDS011;57934;51.532;7.684;2023-07-13T06:50:15;7.63;;;2.85;;
70467;SDS011;57934;51.532;7.684;2023-07-13T06:52:41;12.23;;;2.85;;
70467;SDS011;57934;51.532;7.684;2023-07-13T06:55:07;9.15;;;2.70;;
70467;SDS011;57934;51.532;7.684;2023-07-13T06:57:33;9.10;;;2.83;;
70467;SDS011;57934;51.532;7.684;2023-07-13T06:59:59;6.32;;;2.35;;
70467;SDS011;57934;51.532;7.684;2023-07-13T07:02:25;8.82;;;2.88;;
70467;SDS011;57934;51.532;7.684;2023-07-13T07:04:51;5.35;;;3.10;;
70467;SDS011;57934;51.532;7.684;2023-07-13T07:07:17;9.60;;;2.15;;
70467;SDS011;57934;51.532;7.684;2023-07-13T07:09:43;7.47;;;2.80;;
70467;SDS011;57934;51.532;7.684;2023-07-13T07:12:09;11.82;;;2.88;;
70467;SDS011;57934;51.532;7.684;2023-07-13T07:14:35;11.10;;;3.20;;
70467;SDS011;57934;51.532;7.684;2023-07-13T07:17:01;7.82;;;2.70;;
70467;SDS011;57934;51.532;7.684;2023-07-13T07:19:29;10.52;;;2.83;;
70467;SDS011;57934;51.532;7.684;2023-07-13T07:21:55;10.73;;;3.58;;
70467;SDS011;57934;51.532;7.684;2023-07-13T07:24:21;9.13;;;2.58;;
70467;SDS011;57934;51.532;7.684;2023-07-13T07:26:47;7.55;;;2.67;;
70467;SDS011;57934;51.532;7.684;2023-07-13T07:29:13;8.05;;;2.80;;
70467;SDS011;57934;51.532;7.684;2023-07-13T07:31:39;8.23;;;2.75;;
70467;SDS011;57934;51.532;7.684;2023-07-13T07:34:05;11.02;;;2.83;;
70467;SDS011;57934;51.532;7.684;2023-07-13T07:36:31;7.65;;;2.60;;
70467;SDS011;57934;51.532;7.684;2023-07-13T07:38:57;11.60;;;3.00;;
70467;SDS011;57934;51.532;7.684;2023-07-13T07:41:23;7.53;;;2.90;;
70467;SDS011;57934;51.532;7.684;2023-07-13T07:43:49;11.60;;;3.13;;
70467;SDS011;57934;51.532;7.684;2023-07-13T07:46:15;12.88;;;2.72;;
70467;SDS011;57934;51.532;7.684;2023-07-13T07:48:41;7.78;;;2.42;;
70467;SDS011;57934;51.532;7.684;2023-07-13T07:51:07;8.60;;;2.28;;
70467;SDS011;57934;51.532;7.684;2023-07-13T07:53:33;10.90;;;3.08;;
70467;SDS011;57934;51.532;7.684;2023-07-13T07:55:59;5.50;;;2.15;;
70467;SDS011;57934;51.532;7.684;2023-07-13T07:58:25;8.85;;;2.38;;
70467;SDS011;57934;51.532;7.684;2023-07-13T08:00:51;13.63;;;3.00;;
70467;SDS011;57934;51.532;7.684;2023-07-13T08:03:17;8.73;;;2.30;;
70467;SDS011;57934;51.532;7.684;2023-07-13T08:05:43;6.20;;;2.05;;
70467;SDS011;57934;51.532;7.684;2023-07-13T08:08:09;9.05;;;2.47;;
70467;SDS011;57934;51.532;7.684;2023-07-13T08:10:35;7.47;;;2.53;;
70467;SDS011;57934;51.532;7.684;2023-07-13T08:13:02;10.88;;;2.60;;
70467;SDS011;57934;51.532;7.684;2023-07-13T08:15:28;6.45;;;2.15;;
70467;SDS011;57934;51.532;7.684;2023-07-13T08:17:54;9.88;;;2.20;;
70467;SDS011;57934;51.532;7.684;2023-07-13T08:20:20;9.73;;;2.30;;
70467;SDS011;57934;51.532;7.684;2023-07-13T08:22:46;6.78;;;2.00;;
70467;SDS011;57934;51.532;7.684;2023-07-13T08:25:12;10.63;;;2.30;;
70467;SDS011;57934;51.532;7.684;2023-07-13T08:27:38;7.95;;;2.00;;
70467;SDS011;57934;51.532;7.684;2023-07-13T08:30:04;7.40;;;2.00;;
70467;SDS011;57934;51.532;7.684;2023-07-13T08:32:31;7.82;;;1.90;;
70467;SDS011;57934;51.532;7.684;2023-07-13T08:34:57;5.88;;;1.85;;
70467;SDS011;57934;51.532;7.684;2023-07-13T08:37:23;6.03;;;1.77;;
70467;SDS011;57934;51.532;7.684;2023-07-13T08:39:49;6.65;;;2.00;;
70467;SDS011;57934;51.532;7.684;2023-07-13T08:47:18;6.78;;;1.90;;
70467;SDS011;57934;51.532;7.684;2023-07-13T08:49:48;7.50;;;1.98;;
70467;SDS011;57934;51.532;7.684;2023-07-13T08:52:24;6.38;;;2.10;;
70467;SDS011;57934;51.532;7.684;2023-07-13T08:54:56;7.47;;;2.10;;
70467;SDS011;57934;51.532;7.684;2023-07-13T08:57:29;6.93;;;1.95;;
70467;SDS011;57934;51.532;7.684;2023-07-13T08:59:58;7.30;;;1.90;;
70467;SDS011;57934;51.532;7.684;2023-07-13T09:05:18;8.48;;;2.10;;
70467;SDS011;57934;51.532;7.684;2023-07-13T09:08:00;8.20;;;2.15;;
70467;SDS011;57934;51.532;7.684;2023-07-13T09:10:41;5.23;;;1.60;;
70467;SDS011;57934;51.532;7.684;2023-07-13T09:15:52;10.15;;;2.40;;
70467;SDS011;57934;51.532;7.684;2023-07-13T09:18:29;4.60;;;1.70;;
70467;SDS011;57934;51.532;7.684;2023-07-13T09:21:04;5.00;;;2.25;;
70467;SDS011;57934;51.532;7.684;2023-07-13T09:23:35;7.28;;;2.40;;
70467;SDS011;57934;51.532;7.684;2023-07-13T09:26:10;5.15;;;2.20;;
70467;SDS011;57934;51.532;7.684;2023-07-13T09:28:41;4.68;;;2.00;;
70467;SDS011;57934;51.532;7.684;2023-07-13T09:31:16;5.85;;;1.98;;
70467;SDS011;57934;51.532;7.684;2023-07-13T09:33:47;7.55;;;1.88;;
70467;SDS011;57934;51.532;7.684;2023-07-13T09:36:19;8.07;;;1.88;;
70467;SDS011;57934;51.532;7.684;2023-07-13T09:38:45;8.38;;;2.63;;
70467;SDS011;57934;51.532;7.684;2023-07-13T09:46:36;8.68;;;2.45;;
70467;SDS011;57934;51.532;7.684;2023-07-13T09:49:02;7.93;;;1.90;;
70467;SDS011;57934;51.532;7.684;2023-07-13T09:51:28;9.05;;;2.28;;
70467;SDS011;57934;51.532;7.684;2023-07-13T09:53:54;8.05;;;2.22;;
70467;SDS011;57934;51.532;7.684;2023-07-13T09:58:52;6.75;;;2.10;;
70467;SDS011;57934;51.532;7.684;2023-07-13T10:01:37;6.50;;;2.03;;
70467;SDS011;57934;51.532;7.684;2023-07-13T10:04:11;7.38;;;1.95;;
70467;SDS011;57934;51.532;7.684;2023-07-13T10:06:39;8.30;;;1.92;;
70467;SDS011;57934;51.532;7.684;2023-07-13T10:09:09;5.43;;;1.70;;
70467;SDS011;57934;51.532;7.684;2023-07-13T10:11:36;3.67;;;1.83;;
70467;SDS011;57934;51.532;7.684;2023-07-13T10:14:09;6.18;;;1.98;;
70467;SDS011;57934;51.532;7.684;2023-07-13T10:16:38;5.57;;;1.85;;
70467;SDS011;57934;51.532;7.684;2023-07-13T10:19:18;6.97;;;1.90;;
70467;SDS011;57934;51.532;7.684;2023-07-13T10:24:39;5.70;;;1.90;;
70467;SDS011;57934;51.532;7.684;2023-07-13T10:29:46;4.85;;;1.85;;
70467;SDS011;57934;51.532;7.684;2023-07-13T10:32:15;6.55;;;2.08;;
70467;SDS011;57934;51.532;7.684;2023-07-13T10:34:42;4.18;;;1.75;;
70467;SDS011;57934;51.532;7.684;2023-07-13T10:37:16;9.93;;;2.00;;
70467;SDS011;57934;51.532;7.684;2023-07-13T10:39:46;5.88;;;1.70;;
70467;SDS011;57934;51.532;7.684;2023-07-13T10:42:14;6.13;;;2.05;;
70467;SDS011;57934;51.532;7.684;2023-07-13T10:44:48;6.55;;;1.80;;
70467;SDS011;57934;51.532;7.684;2023-07-13T10:47:15;4.03;;;2.00;;
70467;SDS011;57934;51.532;7.684;2023-07-13T10:49:43;6.82;;;2.30;;
70467;SDS011;57934;51.532;7.684;2023-07-13T10:58:28;7.60;;;2.20;;
70467;SDS011;57934;51.532;7.684;2023-07-13T11:03:23;6.50;;;2.08;;
70467;SDS011;57934;51.532;7.684;2023-07-13T11:06:03;8.43;;;2.15;;
70467;SDS011;57934;51.532;7.684;2023-07-13T11:08:36;9.07;;;2.08;;
70467;SDS011;57934;51.532;7.684;2023-07-13T11:11:31;6.78;;;2.40;;
70467;SDS011;57934;51.532;7.684;2023-07-13T11:18:45;3.47;;;1.88;;
70467;SDS011;57934;51.532;7.684;2023-07-13T11:23:43;5.25;;;1.90;;
70467;SDS011;57934;51.532;7.684;2023-07-13T11:31:41;5.53;;;2.15;;
70467;SDS011;57934;51.532;7.684;2023-07-13T11:34:13;5.05;;;2.10;;
70467;SDS011;57934;51.532;7.684;2023-07-13T11:36:44;6.82;;;2.20;;
70467;SDS011;57934;51.532;7.684;2023-07-13T11:39:18;5.65;;;2.00;;
70467;SDS011;57934;51.532;7.684;2023-07-13T11:41:51;6.55;;;2.17;;
70467;SDS011;57934;51.532;7.684;2023-07-13T11:44:21;8.85;;;1.90;;
70467;SDS011;57934;51.532;7.684;2023-07-13T11:46:52;3.95;;;1.98;;
70467;SDS011;57934;51.532;7.684;2023-07-13T11:49:19;7.03;;;2.13;;
70467;SDS011;57934;51.532;7.684;2023-07-13T11:51:50;4.25;;;1.80;;
70467;SDS011;57934;51.532;7.684;2023-07-13T11:54:24;4.47;;;1.70;;
70467;SDS011;57934;51.532;7.684;2023-07-13T11:56:52;3.63;;;1.67;;
70467;SDS011;57934;51.532;7.684;2023-07-13T11:59:20;4.80;;;1.55;;
70467;SDS011;57934;51.532;7.684;2023-07-13T12:01:51;5.20;;;1.80;;
70467;SDS011;57934;51.532;7.684;2023-07-13T12:04:26;6.85;;;2.20;;
70467;SDS011;57934;51.532;7.684;2023-07-13T12:06:55;3.58;;;1.90;;
70467;SDS011;57934;51.532;7.684;2023-07-13T12:09:26;5.25;;;2.22;;
70467;SDS011;57934;51.532;7.684;2023-07-13T12:11:53;7.95;;;2.05;;
70467;SDS011;57934;51.532;7.684;2023-07-13T12:14:19;5.15;;;1.90;;
70467;SDS011;57934;51.532;7.684;2023-07-13T12:16:46;5.45;;;2.00;;
70467;SDS011;57934;51.532;7.684;2023-07-13T12:19:17;4.93;;;2.25;;
70467;SDS011;57934;51.532;7.684;2023-07-13T12:21:46;4.78;;;1.77;;
70467;SDS011;57934;51.532;7.684;2023-07-13T12:24:13;4.18;;;1.70;;
70467;SDS011;57934;51.532;7.684;2023-07-13T12:26:44;4.85;;;1.80;;
70467;SDS011;57934;51.532;7.684;2023-07-13T12:29:10;3.88;;;1.70;;
70467;SDS011;57934;51.532;7.684;2023-07-13T12:31:42;3.92;;;1.90;;
70467;SDS011;57934;51.532;7.684;2023-07-13T12:34:11;3.17;;;1.65;;
70467;SDS011;57934;51.532;7.684;2023-07-13T12:39:45;5.18;;;1.92;;
70467;SDS011;57934;51.532;7.684;2023-07-13T12:42:47;4.80;;;1.98;;
70467;SDS011;57934;51.532;7.684;2023-07-13T12:45:20;5.22;;;1.65;;
70467;SDS011;57934;51.532;7.684;2023-07-13T12:47:49;4.35;;;1.63;;
70467;SDS011;57934;51.532;7.684;2023-07-13T12:50:20;3.65;;;1.60;;
70467;SDS011;57934;51.532;7.684;2023-07-13T12:52:56;5.88;;;1.70;;
70467;SDS011;57934;51.532;7.684;2023-07-13T12:55:29;5.03;;;1.75;;
70467;SDS011;57934;51.532;7.684;2023-07-13T12:57:59;4.97;;;1.60;;
70467;SDS011;57934;51.532;7.684;2023-07-13T13:00:30;5.68;;;1.88;;
70467;SDS011;57934;51.532;7.684;2023-07-13T13:03:20;3.33;;;1.90;;
70467;SDS011;57934;51.532;7.684;2023-07-13T13:05:49;4.70;;;1.55;;
70467;SDS011;57934;51.532;7.684;2023-07-13T13:08:21;7.43;;;1.83;;
70467;SDS011;57934;51.532;7.684;2023-07-13T13:10:47;3.95;;;2.05;;
70467;SDS011;57934;51.532;7.684;2023-07-13T13:13:13;3.00;;;1.70;;
70467;SDS011;57934;51.532;7.684;2023-07-13T13:15:39;5.03;;;1.83;;
70467;SDS011;57934;51.532;7.684;2023-07-13T13:18:10;4.38;;;2.20;;
70467;SDS011;57934;51.532;7.684;2023-07-13T13:20:41;2.90;;;1.48;;
70467;SDS011;57934;51.532;7.684;2023-07-13T13:23:12;5.72;;;1.70;;
70467;SDS011;57934;51.532;7.684;2023-07-13T13:25:41;3.05;;;1.42;;
70467;SDS011;57934;51.532;7.684;2023-07-13T13:28:12;4.15;;;1.52;;
70467;SDS011;57934;51.532;7.684;2023-07-13T13:30:40;3.65;;;2.10;;
70467;SDS011;57934;51.532;7.684;2023-07-13T13:33:10;5.07;;;1.55;;
70467;SDS011;57934;51.532;7.684;2023-07-13T13:35:37;3.33;;;1.50;;
70467;SDS011;57934;51.532;7.684;2023-07-13T13:38:09;9.00;;;2.08;;
70467;SDS011;57934;51.532;7.684;2023-07-13T13:40:36;3.95;;;1.83;;
70467;SDS011;57934;51.532;7.684;2023-07-13T13:43:04;4.88;;;1.90;;
70467;SDS011;57934;51.532;7.684;2023-07-13T13:45:40;5.90;;;2.05;;
70467;SDS011;57934;51.532;7.684;2023-07-13T13:48:06;4.25;;;1.80;;
70467;SDS011;57934;51.532;7.684;2023-07-13T13:50:39;3.63;;;2.03;;
70467;SDS011;57934;51.532;7.684;2023-07-13T13:53:08;5.15;;;1.83;;
70467;SDS011;57934;51.532;7.684;2023-07-13T13:55:36;4.38;;;1.75;;
70467;SDS011;57934;51.532;7.684;2023-07-13T13:58:02;7.72;;;1.95;;
70467;SDS011;57934;51.532;7.684;2023-07-13T14:00:29;5.40;;;2.50;;
70467;SDS011;57934;51.532;7.684;2023-07-13T14:02:55;5.47;;;1.90;;
70467;SDS011;57934;51.532;7.684;2023-07-13T14:05:24;6.93;;;2.20;;
70467;SDS011;57934;51.532;7.684;2023-07-13T14:07:54;5.25;;;1.90;;
70467;SDS011;57934;51.532;7.684;2023-07-13T14:10:22;8.75;;;2.38;;
70467;SDS011;57934;51.532;7.684;2023-07-13T14:12:50;10.85;;;3.05;;
70467;SDS011;57934;51.532;7.684;2023-07-13T14:15:19;8.93;;;3.97;;
70467;SDS011;57934;51.532;7.684;2023-07-13T14:17:48;3.22;;;2.58;;
70467;SDS011;57934;51.532;7.684;2023-07-13T14:20:15;5.80;;;3.50;;
70467;SDS011;57934;51.532;7.684;2023-07-13T14:22:46;6.53;;;3.92;;
70467;SDS011;57934;51.532;7.684;2023-07-13T14:25:12;8.48;;;4.28;;
70467;SDS011;57934;51.532;7.684;2023-07-13T14:27:40;12.95;;;4.10;;
70467;SDS011;57934;51.532;7.684;2023-07-13T14:32:40;8.18;;;3.55;;
70467;SDS011;57934;51.532;7.684;2023-07-13T14:35:07;7.47;;;3.55;;
70467;SDS011;57934;51.532;7.684;2023-07-13T14:37:36;5.50;;;3.85;;
70467;SDS011;57934;51.532;7.684;2023-07-13T14:40:04;6.85;;;3.70;;
70467;SDS011;57934;51.532;7.684;2023-07-13T14:42:37;7.28;;;4.57;;
70467;SDS011;57934;51.532;7.684;2023-07-13T14:45:03;5.05;;;3.47;;
70467;SDS011;57934;51.532;7.684;2023-07-13T14:47:30;6.57;;;3.53;;
70467;SDS011;57934;51.532;7.684;2023-07-13T14:49:56;9.93;;;3.28;;
70467;SDS011;57934;51.532;7.684;2023-07-13T14:52:23;6.07;;;3.70;;
70467;SDS011;57934;51.532;7.684;2023-07-13T14:54:50;5.38;;;2.90;;
70467;SDS011;57934;51.532;7.684;2023-07-13T14:57:17;5.78;;;2.75;;
70467;SDS011;57934;51.532;7.684;2023-07-13T14:59:45;5.47;;;3.35;;
70467;SDS011;57934;51.532;7.684;2023-07-13T15:04:48;4.03;;;2.67;;
70467;SDS011;57934;51.532;7.684;2023-07-13T15:07:14;5.25;;;2.90;;
70467;SDS011;57934;51.532;7.684;2023-07-13T15:09:41;3.75;;;2.63;;
70467;SDS011;57934;51.532;7.684;2023-07-13T15:12:07;5.72;;;2.67;;
70467;SDS011;57934;51.532;7.684;2023-07-13T15:14:33;3.53;;;2.65;;
70467;SDS011;57934;51.532;7.684;2023-07-13T15:16:59;7.40;;;3.38;;
70467;SDS011;57934;51.532;7.684;2023-07-13T15:19:26;5.45;;;2.78;;
70467;SDS011;57934;51.532;7.684;2023-07-13T15:21:52;4.35;;;2.78;;
70467;SDS011;57934;51.532;7.684;2023-07-13T15:24:21;5.63;;;3.20;;
70467;SDS011;57934;51.532;7.684;2023-07-13T15:26:47;12.27;;;4.97;;
70467;SDS011;57934;51.532;7.684;2023-07-13T15:29:15;11.25;;;5.18;;
70467;SDS011;57934;51.532;7.684;2023-07-13T15:31:41;14.52;;;5.88;;
70467;SDS011;57934;51.532;7.684;2023-07-13T15:34:11;7.63;;;5.43;;
70467;SDS011;57934;51.532;7.684;2023-07-13T15:36:39;10.45;;;5.38;;
70467;SDS011;57934;51.532;7.684;2023-07-13T15:39:05;11.60;;;6.13;;
70467;SDS011;57934;51.532;7.684;2023-07-13T15:41:32;7.70;;;5.65;;
70467;SDS011;57934;51.532;7.684;2023-07-13T15:43:59;7.93;;;5.95;;
70467;SDS011;57934;51.532;7.684;2023-07-13T15:46:30;10.90;;;5.78;;